KSCH/SCH METAR and TAF weather

Enter ICAO airport designator
Station Type Date Time Source
KSCH METAR 2022/06/30 23:46 UTC NOAA

KSCH 302346Z 00000KT 15SM CLR 27/13 A3010


Station Type Date Time Source
KSCH Decoded METAR 2022/06/30 23:46 UTC NOAA

Schenectady Airport, NY, United States (KSCH) 42-51N 073-56W
Jun 30, 2022 - 07:46 PM EDT / 2022.06.30 2346 UTC
Wind: Calm:0
Visibility: 15 mile(s):0
Sky conditions: clear
Temperature: 80 F (27 C)
Dew Point: 55 F (13 C)
Relative Humidity: 41%
Pressure (altimeter): 30.1 in. Hg (1019 hPa)
ob: KSCH 302346Z 00000KT 15SM CLR 27/13 A3010
cycle: 0

Station Type Date Time Source
KSCH TAF UTC NOAA

Error!

Example: see airport list